Oluja — V7QE8 — position and weather

sailwx.info

Track history (hours):
 
Tides and Currents Weather Stations Pressure Air Temp Water Temp Dewpoint Dewpoint Depression Visibility Wind Speed Wind Dir Waves Ship Positions

Oluja

Last reported at 2015-May-23 00:22 UTC. Time now 2015-May-23 13:29 UTC.
Position N 37°26' E 023°40'.

Length 188 m; draft 9.1 m.

Type: Cargo ship. MMSI: 538003345.

Date/timePositionNaut miles runAvg speedWind from/ knotsBaromVisibWave heightAir tempDewpointWater temp
2015-May-23 00:22N 37°26' E 023°40'911.5
2015-May-22 23:33N 37°35' E 023°42'1211.7
2015-May-22 22:34N 37°46' E 023°38'7 6.8
2015-May-22 21:31N 37°51' E 023°32'0 0.1
2015-May-22 20:31N 37°51' E 023°32'0 0.1
2015-May-22 19:31N 37°51' E 023°32'0 0.0
2015-May-22 18:31N 37°51' E 023°32'0 0.0
2015-May-22 17:31N 37°51' E 023°32'0 0.0
2015-May-22 16:31N 37°51' E 023°32'0 0.0
2015-May-22 15:33N 37°51' E 023°32'0 0.0
2015-May-22 14:33N 37°51' E 023°32'0 0.3
2015-May-22 13:33N 37°51' E 023°32'4 4.5
2015-May-22 12:33N 37°51' E 023°38'1211.6
2015-May-22 11:33N 37°41' E 023°45'1312.1
2015-May-22 10:29N 37°35' E 023°60'1510.6
2015-May-22 09:04N 37°46' E 024°13'1912.6
2015-May-22 07:33N 38°05' E 024°08'  
2015-May-18 18:17N 37°51' E 024°14'23 6.1
2015-May-18 14:32N 37°36' E 023°51'1010.5
2015-May-18 13:33N 37°42' E 023°41'1110.9
2015-May-18 12:34N 37°51' E 023°33'2 1.5
2015-May-18 11:32N 37°52' E 023°32'0 0.0
2015-May-18 10:32N 37°52' E 023°32'0 0.0
2015-May-18 09:32N 37°52' E 023°32'0 0.0
2015-May-18 08:26N 37°52' E 023°32'0 0.0
2015-May-18 07:32N 37°52' E 023°32'0 0.0
2015-May-18 06:14N 37°52' E 023°32'0 0.0
2015-May-18 05:33N 37°52' E 023°32'0 0.1
2015-May-18 04:33N 37°52' E 023°32'4 3.9
2015-May-18 03:33N 37°51' E 023°36'1110.9
2015-May-18 02:33N 37°42' E 023°44'1312.6
2015-May-18 01:33N 37°29' E 023°43'1212.1
2015-May-18 00:33N 37°17' E 023°41'1211.9
2015-May-17 23:33N 37°06' E 023°38'9 8.6
2015-May-17 22:33N 36°57' E 023°37'1212.2
2015-May-17 21:33N 37°09' E 023°39'4 3.7
2015-May-17 20:33N 37°06' E 023°41'7 7.0
2015-May-17 19:33N 36°59' E 023°38'1211.8
2015-May-17 18:33N 36°48' E 023°32'1211.9
2015-May-17 17:33N 36°38' E 023°25'1211.7
2015-May-17 16:33N 36°28' E 023°18'2210.8
2015-May-17 14:33N 36°24' E 022°51'22011.4
2015-May-16 19:10N 37°13' E 018°23'811.9
2015-May-16 18:30N 37°15' E 018°13'26010.2
2015-May-15 17:08N 40°25' E 014°26'1 1.7
2015-May-15 16:33N 40°24' E 014°25'1 1.4
2015-May-15 15:28N 40°22' E 014°25'2 1.5
2015-May-15 14:12N 40°21' E 014°27'1 1.7
2015-May-15 13:33N 40°20' E 014°27'9 3.8
2015-May-15 11:10N 40°21' E 014°16'1 0.7
2015-May-15 09:22N 40°20' E 014°17'1 1.0
2015-May-15 08:31N 40°20' E 014°18'1 1.1
2015-May-15 07:33N 40°20' E 014°19'1 1.1
2015-May-15 06:31N 40°20' E 014°21'1 1.2
2015-May-15 05:23N 40°20' E 014°22'1 1.1
2015-May-15 04:27N 40°19' E 014°24'3 1.3
2015-May-15 02:11N 40°19' E 014°27'1 1.3
2015-May-15 01:32N 40°18' E 014°28'3 0.8
2015-May-14 21:33N 40°21' E 014°31'0 0.5
2015-May-14 20:33N 40°20' E 014°31'4 3.7
2015-May-14 19:33N 40°24' E 014°30'5 1.7
2015-May-14 16:32N 40°26' E 014°36'  
Track history (hours):
 
Tides and Currents Weather Stations Pressure Air Temp Water Temp Dewpoint Dewpoint Depression Visibility Wind Speed Wind Dir Waves Ship Positions

Oluja

Last reported at 2015-May-23 00:22 UTC. Time now 2015-May-23 13:29 UTC.
Position N 37°26' E 023°40'.

Length 188 m; draft 9.1 m.

Type: Cargo ship. MMSI: 538003345.

Date/timePositionNaut miles runAvg speedWind from/ knotsBaromVisibWave heightAir tempDewpointWater temp
2015-May-23 00:22N 37°26' E 023°40'911.5
2015-May-22 23:33N 37°35' E 023°42'1211.7
2015-May-22 22:34N 37°46' E 023°38'7 6.8
2015-May-22 21:31N 37°51' E 023°32'0 0.1
2015-May-22 20:31N 37°51' E 023°32'0 0.1
2015-May-22 19:31N 37°51' E 023°32'0 0.0
2015-May-22 18:31N 37°51' E 023°32'0 0.0
2015-May-22 17:31N 37°51' E 023°32'0 0.0
2015-May-22 16:31N 37°51' E 023°32'0 0.0
2015-May-22 15:33N 37°51' E 023°32'0 0.0
2015-May-22 14:33N 37°51' E 023°32'0 0.3
2015-May-22 13:33N 37°51' E 023°32'4 4.5
2015-May-22 12:33N 37°51' E 023°38'1211.6
2015-May-22 11:33N 37°41' E 023°45'1312.1
2015-May-22 10:29N 37°35' E 023°60'1510.6
2015-May-22 09:04N 37°46' E 024°13'1912.6
2015-May-22 07:33N 38°05' E 024°08'  
2015-May-18 18:17N 37°51' E 024°14'23 6.1
2015-May-18 14:32N 37°36' E 023°51'1010.5
2015-May-18 13:33N 37°42' E 023°41'1110.9
2015-May-18 12:34N 37°51' E 023°33'2 1.5
2015-May-18 11:32N 37°52' E 023°32'0 0.0
2015-May-18 10:32N 37°52' E 023°32'0 0.0
2015-May-18 09:32N 37°52' E 023°32'0 0.0
2015-May-18 08:26N 37°52' E 023°32'0 0.0
2015-May-18 07:32N 37°52' E 023°32'0 0.0
2015-May-18 06:14N 37°52' E 023°32'0 0.0
2015-May-18 05:33N 37°52' E 023°32'0 0.1
2015-May-18 04:33N 37°52' E 023°32'4 3.9
2015-May-18 03:33N 37°51' E 023°36'1110.9
2015-May-18 02:33N 37°42' E 023°44'1312.6
2015-May-18 01:33N 37°29' E 023°43'1212.1
2015-May-18 00:33N 37°17' E 023°41'1211.9
2015-May-17 23:33N 37°06' E 023°38'9 8.6
2015-May-17 22:33N 36°57' E 023°37'1212.2
2015-May-17 21:33N 37°09' E 023°39'4 3.7
2015-May-17 20:33N 37°06' E 023°41'7 7.0
2015-May-17 19:33N 36°59' E 023°38'1211.8
2015-May-17 18:33N 36°48' E 023°32'1211.9
2015-May-17 17:33N 36°38' E 023°25'1211.7
2015-May-17 16:33N 36°28' E 023°18'2210.8
2015-May-17 14:33N 36°24' E 022°51'22011.4
2015-May-16 19:10N 37°13' E 018°23'811.9
2015-May-16 18:30N 37°15' E 018°13'26010.2
2015-May-15 17:08N 40°25' E 014°26'1 1.7
2015-May-15 16:33N 40°24' E 014°25'1 1.4
2015-May-15 15:28N 40°22' E 014°25'2 1.5
2015-May-15 14:12N 40°21' E 014°27'1 1.7
2015-May-15 13:33N 40°20' E 014°27'9 3.8
2015-May-15 11:10N 40°21' E 014°16'1 0.7
2015-May-15 09:22N 40°20' E 014°17'1 1.0
2015-May-15 08:31N 40°20' E 014°18'1 1.1
2015-May-15 07:33N 40°20' E 014°19'1 1.1
2015-May-15 06:31N 40°20' E 014°21'1 1.2
2015-May-15 05:23N 40°20' E 014°22'1 1.1
2015-May-15 04:27N 40°19' E 014°24'3 1.3
2015-May-15 02:11N 40°19' E 014°27'1 1.3
2015-May-15 01:32N 40°18' E 014°28'3 0.8
2015-May-14 21:33N 40°21' E 014°31'0 0.5
2015-May-14 20:33N 40°20' E 014°31'4 3.7
2015-May-14 19:33N 40°24' E 014°30'5 1.7
2015-May-14 16:32N 40°26' E 014°36'  

Dump ship's entire track history